sensor_id;sensor_type;location;lat;lon;timestamp;P1;durP1;ratioP1;P2;durP2;ratioP2
52468;SDS011;38381;53.688;10.776;2023-09-19T00:03:29;2.95;;;1.60;;
52468;SDS011;38381;53.688;10.776;2023-09-19T00:08:31;1.33;;;1.20;;
52468;SDS011;38381;53.688;10.776;2023-09-19T00:13:33;2.10;;;1.58;;
52468;SDS011;38381;53.688;10.776;2023-09-19T00:18:36;2.45;;;1.40;;
52468;SDS011;38381;53.688;10.776;2023-09-19T00:23:38;2.70;;;1.58;;
52468;SDS011;38381;53.688;10.776;2023-09-19T00:28:41;2.03;;;1.40;;
52468;SDS011;38381;53.688;10.776;2023-09-19T00:33:41;1.63;;;1.45;;
52468;SDS011;38381;53.688;10.776;2023-09-19T00:38:42;1.65;;;1.38;;
52468;SDS011;38381;53.688;10.776;2023-09-19T00:43:44;2.85;;;1.85;;
52468;SDS011;38381;53.688;10.776;2023-09-19T00:48:45;3.78;;;1.85;;
52468;SDS011;38381;53.688;10.776;2023-09-19T00:53:46;3.33;;;1.80;;
52468;SDS011;38381;53.688;10.776;2023-09-19T00:58:47;1.90;;;1.70;;
52468;SDS011;38381;53.688;10.776;2023-09-19T01:03:48;2.42;;;1.70;;
52468;SDS011;38381;53.688;10.776;2023-09-19T01:08:48;2.65;;;2.00;;
52468;SDS011;38381;53.688;10.776;2023-09-19T01:14:02;2.20;;;1.60;;
52468;SDS011;38381;53.688;10.776;2023-09-19T01:25:18;4.18;;;2.22;;
52468;SDS011;38381;53.688;10.776;2023-09-19T01:30:21;5.35;;;2.28;;
52468;SDS011;38381;53.688;10.776;2023-09-19T01:35:24;2.85;;;2.03;;
52468;SDS011;38381;53.688;10.776;2023-09-19T01:40:25;2.80;;;2.33;;
52468;SDS011;38381;53.688;10.776;2023-09-19T01:51:05;2.60;;;2.17;;
52468;SDS011;38381;53.688;10.776;2023-09-19T01:56:07;2.78;;;2.42;;
52468;SDS011;38381;53.688;10.776;2023-09-19T02:01:18;4.90;;;2.47;;
52468;SDS011;38381;53.688;10.776;2023-09-19T02:06:22;2.47;;;1.90;;
52468;SDS011;38381;53.688;10.776;2023-09-19T02:11:26;3.47;;;2.28;;
52468;SDS011;38381;53.688;10.776;2023-09-19T02:16:27;2.87;;;2.43;;
52468;SDS011;38381;53.688;10.776;2023-09-19T02:21:28;4.67;;;2.83;;
52468;SDS011;38381;53.688;10.776;2023-09-19T02:26:32;3.05;;;2.55;;
52468;SDS011;38381;53.688;10.776;2023-09-19T02:31:36;7.88;;;3.03;;
52468;SDS011;38381;53.688;10.776;2023-09-19T02:36:37;4.72;;;2.80;;
52468;SDS011;38381;53.688;10.776;2023-09-19T02:41:38;4.45;;;3.00;;
52468;SDS011;38381;53.688;10.776;2023-09-19T02:46:38;3.80;;;3.10;;
52468;SDS011;38381;53.688;10.776;2023-09-19T02:51:39;3.95;;;2.72;;
52468;SDS011;38381;53.688;10.776;2023-09-19T02:56:39;3.63;;;2.78;;
52468;SDS011;38381;53.688;10.776;2023-09-19T03:01:42;5.95;;;2.60;;
52468;SDS011;38381;53.688;10.776;2023-09-19T03:06:43;3.80;;;2.72;;
52468;SDS011;38381;53.688;10.776;2023-09-19T03:11:44;5.60;;;2.95;;
52468;SDS011;38381;53.688;10.776;2023-09-19T03:16:46;4.33;;;2.60;;
52468;SDS011;38381;53.688;10.776;2023-09-19T03:21:46;3.60;;;2.60;;
52468;SDS011;38381;53.688;10.776;2023-09-19T03:26:49;7.80;;;2.72;;
52468;SDS011;38381;53.688;10.776;2023-09-19T03:31:49;3.78;;;2.83;;
52468;SDS011;38381;53.688;10.776;2023-09-19T03:36:50;4.75;;;2.78;;
52468;SDS011;38381;53.688;10.776;2023-09-19T03:41:50;4.00;;;2.47;;
52468;SDS011;38381;53.688;10.776;2023-09-19T03:46:51;3.22;;;2.40;;
52468;SDS011;38381;53.688;10.776;2023-09-19T03:51:51;5.55;;;3.05;;
52468;SDS011;38381;53.688;10.776;2023-09-19T03:56:52;5.07;;;2.67;;
52468;SDS011;38381;53.688;10.776;2023-09-19T04:01:52;4.15;;;2.53;;
52468;SDS011;38381;53.688;10.776;2023-09-19T04:06:56;8.82;;;3.17;;
52468;SDS011;38381;53.688;10.776;2023-09-19T04:11:56;3.53;;;2.60;;
52468;SDS011;38381;53.688;10.776;2023-09-19T04:16:56;6.67;;;3.63;;
52468;SDS011;38381;53.688;10.776;2023-09-19T04:21:57;3.60;;;2.30;;
52468;SDS011;38381;53.688;10.776;2023-09-19T04:26:57;3.22;;;2.58;;
52468;SDS011;38381;53.688;10.776;2023-09-19T04:31:59;3.73;;;2.30;;
52468;SDS011;38381;53.688;10.776;2023-09-19T04:36:59;2.50;;;2.30;;
52468;SDS011;38381;53.688;10.776;2023-09-19T04:42:00;4.70;;;2.67;;
52468;SDS011;38381;53.688;10.776;2023-09-19T04:47:01;4.05;;;1.92;;
52468;SDS011;38381;53.688;10.776;2023-09-19T04:52:01;4.00;;;2.38;;
52468;SDS011;38381;53.688;10.776;2023-09-19T04:57:02;3.03;;;1.73;;
52468;SDS011;38381;53.688;10.776;2023-09-19T05:02:02;4.18;;;2.00;;
52468;SDS011;38381;53.688;10.776;2023-09-19T05:07:03;4.75;;;2.10;;
52468;SDS011;38381;53.688;10.776;2023-09-19T05:12:03;4.50;;;1.98;;
52468;SDS011;38381;53.688;10.776;2023-09-19T05:17:04;5.88;;;1.92;;
52468;SDS011;38381;53.688;10.776;2023-09-19T05:22:05;4.00;;;1.83;;
52468;SDS011;38381;53.688;10.776;2023-09-19T05:27:07;3.67;;;1.88;;
52468;SDS011;38381;53.688;10.776;2023-09-19T05:32:07;6.00;;;2.83;;
52468;SDS011;38381;53.688;10.776;2023-09-19T05:37:08;6.28;;;1.70;;
52468;SDS011;38381;53.688;10.776;2023-09-19T05:42:08;3.13;;;1.95;;
52468;SDS011;38381;53.688;10.776;2023-09-19T05:47:09;2.63;;;1.80;;
52468;SDS011;38381;53.688;10.776;2023-09-19T05:52:10;7.60;;;1.95;;
52468;SDS011;38381;53.688;10.776;2023-09-19T05:57:10;3.03;;;1.80;;
52468;SDS011;38381;53.688;10.776;2023-09-19T06:02:12;3.07;;;1.70;;
52468;SDS011;38381;53.688;10.776;2023-09-19T06:07:12;3.90;;;2.03;;
52468;SDS011;38381;53.688;10.776;2023-09-19T06:12:13;3.30;;;1.85;;
52468;SDS011;38381;53.688;10.776;2023-09-19T06:22:17;3.72;;;1.92;;
52468;SDS011;38381;53.688;10.776;2023-09-19T06:27:18;5.83;;;1.80;;
52468;SDS011;38381;53.688;10.776;2023-09-19T06:32:26;4.40;;;1.73;;
52468;SDS011;38381;53.688;10.776;2023-09-19T06:37:27;4.15;;;1.95;;
52468;SDS011;38381;53.688;10.776;2023-09-19T06:42:28;5.15;;;1.90;;
52468;SDS011;38381;53.688;10.776;2023-09-19T06:47:29;4.28;;;1.90;;
52468;SDS011;38381;53.688;10.776;2023-09-19T06:52:30;4.65;;;2.42;;
52468;SDS011;38381;53.688;10.776;2023-09-19T06:57:30;2.95;;;1.67;;
52468;SDS011;38381;53.688;10.776;2023-09-19T07:02:31;2.03;;;1.42;;
52468;SDS011;38381;53.688;10.776;2023-09-19T07:07:31;3.08;;;1.60;;
52468;SDS011;38381;53.688;10.776;2023-09-19T07:12:35;6.30;;;2.38;;
52468;SDS011;38381;53.688;10.776;2023-09-19T07:17:35;7.97;;;2.67;;
52468;SDS011;38381;53.688;10.776;2023-09-19T07:22:36;3.33;;;1.80;;
52468;SDS011;38381;53.688;10.776;2023-09-19T07:32:40;7.38;;;2.60;;
52468;SDS011;38381;53.688;10.776;2023-09-19T07:37:40;3.25;;;2.55;;
52468;SDS011;38381;53.688;10.776;2023-09-19T07:42:41;4.77;;;2.70;;
52468;SDS011;38381;53.688;10.776;2023-09-19T07:47:44;5.30;;;2.00;;
52468;SDS011;38381;53.688;10.776;2023-09-19T07:52:46;5.93;;;2.40;;
52468;SDS011;38381;53.688;10.776;2023-09-19T07:57:47;4.68;;;2.20;;
52468;SDS011;38381;53.688;10.776;2023-09-19T08:02:49;4.30;;;2.40;;
52468;SDS011;38381;53.688;10.776;2023-09-19T08:07:49;3.63;;;2.35;;
52468;SDS011;38381;53.688;10.776;2023-09-19T08:12:50;4.40;;;2.35;;
52468;SDS011;38381;53.688;10.776;2023-09-19T08:17:56;5.80;;;2.50;;
52468;SDS011;38381;53.688;10.776;2023-09-19T08:22:56;4.53;;;2.20;;
52468;SDS011;38381;53.688;10.776;2023-09-19T08:27:57;7.20;;;2.92;;
52468;SDS011;38381;53.688;10.776;2023-09-19T08:33:02;4.13;;;2.33;;
52468;SDS011;38381;53.688;10.776;2023-09-19T08:38:04;7.45;;;3.33;;
52468;SDS011;38381;53.688;10.776;2023-09-19T08:43:06;5.18;;;3.00;;
52468;SDS011;38381;53.688;10.776;2023-09-19T08:53:27;4.28;;;2.22;;
52468;SDS011;38381;53.688;10.776;2023-09-19T08:59:06;4.38;;;2.47;;
52468;SDS011;38381;53.688;10.776;2023-09-19T09:04:11;4.88;;;2.80;;
52468;SDS011;38381;53.688;10.776;2023-09-19T09:09:13;6.93;;;2.75;;
52468;SDS011;38381;53.688;10.776;2023-09-19T09:14:13;10.27;;;2.25;;
52468;SDS011;38381;53.688;10.776;2023-09-19T09:19:14;3.25;;;2.03;;
52468;SDS011;38381;53.688;10.776;2023-09-19T09:24:27;4.75;;;3.28;;
52468;SDS011;38381;53.688;10.776;2023-09-19T09:34:44;6.15;;;2.95;;
52468;SDS011;38381;53.688;10.776;2023-09-19T09:40:04;4.00;;;2.30;;
52468;SDS011;38381;53.688;10.776;2023-09-19T09:45:20;3.67;;;2.35;;
52468;SDS011;38381;53.688;10.776;2023-09-19T09:50:51;7.72;;;2.28;;
52468;SDS011;38381;53.688;10.776;2023-09-19T09:56:06;5.18;;;2.45;;
52468;SDS011;38381;53.688;10.776;2023-09-19T10:01:09;7.90;;;2.28;;
52468;SDS011;38381;53.688;10.776;2023-09-19T10:06:10;4.00;;;2.30;;
52468;SDS011;38381;53.688;10.776;2023-09-19T10:11:23;6.80;;;3.35;;
52468;SDS011;38381;53.688;10.776;2023-09-19T10:16:30;4.30;;;2.53;;
52468;SDS011;38381;53.688;10.776;2023-09-19T10:21:32;3.60;;;2.35;;
52468;SDS011;38381;53.688;10.776;2023-09-19T10:26:36;7.55;;;2.45;;
52468;SDS011;38381;53.688;10.776;2023-09-19T10:31:39;7.72;;;2.63;;
52468;SDS011;38381;53.688;10.776;2023-09-19T10:36:47;3.72;;;2.05;;
52468;SDS011;38381;53.688;10.776;2023-09-19T10:41:52;3.38;;;2.28;;
52468;SDS011;38381;53.688;10.776;2023-09-19T10:46:58;6.93;;;2.60;;
52468;SDS011;38381;53.688;10.776;2023-09-19T10:51:59;5.30;;;2.20;;
52468;SDS011;38381;53.688;10.776;2023-09-19T10:57:02;2.90;;;2.00;;
52468;SDS011;38381;53.688;10.776;2023-09-19T11:02:17;4.68;;;2.35;;
52468;SDS011;38381;53.688;10.776;2023-09-19T11:07:18;5.05;;;1.48;;
52468;SDS011;38381;53.688;10.776;2023-09-19T11:17:33;4.60;;;2.22;;
52468;SDS011;38381;53.688;10.776;2023-09-19T11:43:45;4.05;;;1.55;;
52468;SDS011;38381;53.688;10.776;2023-09-19T11:48:47;8.70;;;2.53;;
52468;SDS011;38381;53.688;10.776;2023-09-19T11:53:48;2.85;;;1.83;;
52468;SDS011;38381;53.688;10.776;2023-09-19T11:58:50;6.18;;;1.55;;
52468;SDS011;38381;53.688;10.776;2023-09-19T12:03:57;4.80;;;1.70;;
52468;SDS011;38381;53.688;10.776;2023-09-19T12:08:59;4.90;;;1.67;;
52468;SDS011;38381;53.688;10.776;2023-09-19T12:14:01;3.00;;;1.85;;
52468;SDS011;38381;53.688;10.776;2023-09-19T12:19:19;6.82;;;2.10;;
52468;SDS011;38381;53.688;10.776;2023-09-19T12:24:24;5.70;;;1.92;;
52468;SDS011;38381;53.688;10.776;2023-09-19T12:29:26;2.95;;;2.03;;
52468;SDS011;38381;53.688;10.776;2023-09-19T12:34:28;7.18;;;2.35;;
52468;SDS011;38381;53.688;10.776;2023-09-19T12:39:34;4.75;;;1.70;;
52468;SDS011;38381;53.688;10.776;2023-09-19T12:44:36;7.07;;;2.22;;
52468;SDS011;38381;53.688;10.776;2023-09-19T12:55:06;2.53;;;1.88;;
52468;SDS011;38381;53.688;10.776;2023-09-19T13:00:07;3.88;;;1.75;;
52468;SDS011;38381;53.688;10.776;2023-09-19T13:05:11;5.97;;;2.20;;
52468;SDS011;38381;53.688;10.776;2023-09-19T13:10:11;5.82;;;2.45;;
52468;SDS011;38381;53.688;10.776;2023-09-19T13:15:15;5.30;;;2.28;;
52468;SDS011;38381;53.688;10.776;2023-09-19T13:20:26;8.18;;;2.53;;
52468;SDS011;38381;53.688;10.776;2023-09-19T13:25:39;4.63;;;2.10;;
52468;SDS011;38381;53.688;10.776;2023-09-19T13:30:40;5.13;;;2.13;;
52468;SDS011;38381;53.688;10.776;2023-09-19T13:35:43;6.35;;;2.60;;
52468;SDS011;38381;53.688;10.776;2023-09-19T13:40:44;5.53;;;2.28;;
52468;SDS011;38381;53.688;10.776;2023-09-19T13:45:44;6.68;;;2.25;;
52468;SDS011;38381;53.688;10.776;2023-09-19T13:50:45;5.40;;;2.43;;
52468;SDS011;38381;53.688;10.776;2023-09-19T13:55:46;5.82;;;3.10;;
52468;SDS011;38381;53.688;10.776;2023-09-19T14:00:48;4.38;;;2.33;;
52468;SDS011;38381;53.688;10.776;2023-09-19T14:05:49;4.35;;;1.75;;
52468;SDS011;38381;53.688;10.776;2023-09-19T14:15:51;4.13;;;2.00;;
52468;SDS011;38381;53.688;10.776;2023-09-19T14:20:52;5.40;;;2.80;;
52468;SDS011;38381;53.688;10.776;2023-09-19T14:25:53;2.38;;;2.03;;
52468;SDS011;38381;53.688;10.776;2023-09-19T14:30:54;6.78;;;2.22;;
52468;SDS011;38381;53.688;10.776;2023-09-19T14:35:54;3.58;;;2.13;;
52468;SDS011;38381;53.688;10.776;2023-09-19T14:41:04;5.75;;;2.08;;
52468;SDS011;38381;53.688;10.776;2023-09-19T14:46:06;3.25;;;2.30;;
52468;SDS011;38381;53.688;10.776;2023-09-19T14:51:10;5.38;;;2.63;;
52468;SDS011;38381;53.688;10.776;2023-09-19T14:56:12;3.88;;;1.90;;
52468;SDS011;38381;53.688;10.776;2023-09-19T15:01:13;5.13;;;2.03;;
52468;SDS011;38381;53.688;10.776;2023-09-19T15:06:14;5.93;;;2.28;;
52468;SDS011;38381;53.688;10.776;2023-09-19T15:11:19;5.68;;;1.80;;
52468;SDS011;38381;53.688;10.776;2023-09-19T15:16:20;3.92;;;2.20;;
52468;SDS011;38381;53.688;10.776;2023-09-19T15:21:20;4.53;;;1.88;;
52468;SDS011;38381;53.688;10.776;2023-09-19T15:26:21;5.65;;;2.10;;
52468;SDS011;38381;53.688;10.776;2023-09-19T15:31:22;3.88;;;2.40;;
52468;SDS011;38381;53.688;10.776;2023-09-19T15:36:22;7.25;;;2.85;;
52468;SDS011;38381;53.688;10.776;2023-09-19T15:46:30;3.33;;;2.00;;
52468;SDS011;38381;53.688;10.776;2023-09-19T15:51:33;6.07;;;2.28;;
52468;SDS011;38381;53.688;10.776;2023-09-19T15:56:36;4.10;;;2.30;;
52468;SDS011;38381;53.688;10.776;2023-09-19T16:01:37;3.40;;;2.03;;
52468;SDS011;38381;53.688;10.776;2023-09-19T16:06:38;5.30;;;2.55;;
52468;SDS011;38381;53.688;10.776;2023-09-19T16:11:38;6.95;;;2.58;;
52468;SDS011;38381;53.688;10.776;2023-09-19T16:16:40;4.32;;;2.58;;
52468;SDS011;38381;53.688;10.776;2023-09-19T16:21:41;3.67;;;2.17;;
52468;SDS011;38381;53.688;10.776;2023-09-19T16:26:43;5.30;;;2.45;;
52468;SDS011;38381;53.688;10.776;2023-09-19T16:31:45;5.73;;;2.33;;
52468;SDS011;38381;53.688;10.776;2023-09-19T16:36:45;5.43;;;2.30;;
52468;SDS011;38381;53.688;10.776;2023-09-19T16:41:46;3.40;;;2.17;;
52468;SDS011;38381;53.688;10.776;2023-09-19T16:46:46;5.15;;;2.88;;
52468;SDS011;38381;53.688;10.776;2023-09-19T16:51:47;3.90;;;2.47;;
52468;SDS011;38381;53.688;10.776;2023-09-19T16:56:47;4.88;;;2.40;;
52468;SDS011;38381;53.688;10.776;2023-09-19T17:01:47;3.10;;;2.50;;
52468;SDS011;38381;53.688;10.776;2023-09-19T17:06:48;3.43;;;2.00;;
52468;SDS011;38381;53.688;10.776;2023-09-19T17:11:48;5.20;;;2.47;;
52468;SDS011;38381;53.688;10.776;2023-09-19T17:16:50;3.80;;;2.50;;
52468;SDS011;38381;53.688;10.776;2023-09-19T17:21:50;8.88;;;2.92;;
52468;SDS011;38381;53.688;10.776;2023-09-19T17:26:50;5.47;;;2.17;;
52468;SDS011;38381;53.688;10.776;2023-09-19T17:31:51;5.60;;;1.70;;
52468;SDS011;38381;53.688;10.776;2023-09-19T17:36:51;4.80;;;2.40;;
52468;SDS011;38381;53.688;10.776;2023-09-19T17:41:52;3.13;;;1.88;;
52468;SDS011;38381;53.688;10.776;2023-09-19T17:46:52;3.30;;;2.33;;
52468;SDS011;38381;53.688;10.776;2023-09-19T17:51:53;3.92;;;1.98;;
52468;SDS011;38381;53.688;10.776;2023-09-19T17:56:53;2.70;;;1.88;;
52468;SDS011;38381;53.688;10.776;2023-09-19T18:01:54;2.88;;;1.80;;
52468;SDS011;38381;53.688;10.776;2023-09-19T18:06:55;4.00;;;2.03;;
52468;SDS011;38381;53.688;10.776;2023-09-19T18:11:55;3.85;;;1.77;;
52468;SDS011;38381;53.688;10.776;2023-09-19T18:16:57;3.88;;;2.08;;
52468;SDS011;38381;53.688;10.776;2023-09-19T18:21:58;7.00;;;2.38;;
52468;SDS011;38381;53.688;10.776;2023-09-19T18:27:03;2.42;;;1.75;;
52468;SDS011;38381;53.688;10.776;2023-09-19T18:32:04;6.60;;;2.60;;
52468;SDS011;38381;53.688;10.776;2023-09-19T18:37:05;4.03;;;2.30;;
52468;SDS011;38381;53.688;10.776;2023-09-19T18:42:05;5.28;;;2.15;;
52468;SDS011;38381;53.688;10.776;2023-09-19T18:47:06;2.72;;;1.70;;
52468;SDS011;38381;53.688;10.776;2023-09-19T18:52:06;3.57;;;1.80;;
52468;SDS011;38381;53.688;10.776;2023-09-19T18:57:08;3.47;;;1.77;;
52468;SDS011;38381;53.688;10.776;2023-09-19T19:02:08;1.88;;;1.60;;
52468;SDS011;38381;53.688;10.776;2023-09-19T19:07:10;2.00;;;1.27;;
52468;SDS011;38381;53.688;10.776;2023-09-19T19:12:16;6.18;;;2.15;;
52468;SDS011;38381;53.688;10.776;2023-09-19T19:17:16;5.53;;;2.20;;
52468;SDS011;38381;53.688;10.776;2023-09-19T19:22:17;2.20;;;1.63;;
52468;SDS011;38381;53.688;10.776;2023-09-19T19:27:20;3.15;;;1.92;;
52468;SDS011;38381;53.688;10.776;2023-09-19T19:32:20;3.88;;;1.85;;
52468;SDS011;38381;53.688;10.776;2023-09-19T19:37:25;6.43;;;1.58;;
52468;SDS011;38381;53.688;10.776;2023-09-19T19:42:25;4.40;;;1.52;;
52468;SDS011;38381;53.688;10.776;2023-09-19T19:47:29;3.67;;;1.63;;
52468;SDS011;38381;53.688;10.776;2023-09-19T19:52:30;3.03;;;1.90;;
52468;SDS011;38381;53.688;10.776;2023-09-19T19:57:33;4.05;;;1.60;;
52468;SDS011;38381;53.688;10.776;2023-09-19T20:02:35;3.03;;;1.38;;
52468;SDS011;38381;53.688;10.776;2023-09-19T20:07:35;3.35;;;1.50;;
52468;SDS011;38381;53.688;10.776;2023-09-19T20:12:36;3.95;;;1.48;;
52468;SDS011;38381;53.688;10.776;2023-09-19T20:17:37;2.60;;;1.47;;
52468;SDS011;38381;53.688;10.776;2023-09-19T20:22:37;4.35;;;1.58;;
52468;SDS011;38381;53.688;10.776;2023-09-19T20:27:41;4.32;;;1.30;;
52468;SDS011;38381;53.688;10.776;2023-09-19T20:32:42;3.97;;;1.50;;
52468;SDS011;38381;53.688;10.776;2023-09-19T20:37:44;4.60;;;1.98;;
52468;SDS011;38381;53.688;10.776;2023-09-19T20:42:49;3.10;;;1.42;;
52468;SDS011;38381;53.688;10.776;2023-09-19T20:47:50;3.38;;;1.40;;
52468;SDS011;38381;53.688;10.776;2023-09-19T20:57:53;2.72;;;1.42;;
52468;SDS011;38381;53.688;10.776;2023-09-19T21:02:53;2.57;;;1.33;;
52468;SDS011;38381;53.688;10.776;2023-09-19T21:07:54;2.28;;;1.38;;
52468;SDS011;38381;53.688;10.776;2023-09-19T21:12:55;2.30;;;1.42;;
52468;SDS011;38381;53.688;10.776;2023-09-19T21:17:55;2.78;;;1.38;;
52468;SDS011;38381;53.688;10.776;2023-09-19T21:22:56;5.75;;;1.75;;
52468;SDS011;38381;53.688;10.776;2023-09-19T21:27:56;4.05;;;2.00;;
52468;SDS011;38381;53.688;10.776;2023-09-19T21:32:57;3.20;;;1.65;;
52468;SDS011;38381;53.688;10.776;2023-09-19T21:37:57;4.57;;;1.50;;
52468;SDS011;38381;53.688;10.776;2023-09-19T21:42:58;1.60;;;1.10;;
52468;SDS011;38381;53.688;10.776;2023-09-19T21:47:58;4.47;;;1.40;;
52468;SDS011;38381;53.688;10.776;2023-09-19T21:52:59;3.83;;;1.57;;
52468;SDS011;38381;53.688;10.776;2023-09-19T21:57:59;3.37;;;1.60;;
52468;SDS011;38381;53.688;10.776;2023-09-19T22:03:03;2.17;;;1.48;;
52468;SDS011;38381;53.688;10.776;2023-09-19T22:08:07;4.18;;;1.30;;
52468;SDS011;38381;53.688;10.776;2023-09-19T22:13:12;1.88;;;1.40;;
52468;SDS011;38381;53.688;10.776;2023-09-19T22:18:15;2.63;;;1.58;;
52468;SDS011;38381;53.688;10.776;2023-09-19T22:23:20;3.97;;;1.42;;
52468;SDS011;38381;53.688;10.776;2023-09-19T22:28:33;4.25;;;1.35;;
52468;SDS011;38381;53.688;10.776;2023-09-19T22:38:40;2.35;;;1.48;;
52468;SDS011;38381;53.688;10.776;2023-09-19T22:43:40;1.73;;;1.37;;
52468;SDS011;38381;53.688;10.776;2023-09-19T22:48:48;2.10;;;1.48;;
52468;SDS011;38381;53.688;10.776;2023-09-19T22:53:50;5.05;;;1.65;;
52468;SDS011;38381;53.688;10.776;2023-09-19T22:59:00;3.13;;;1.33;;
52468;SDS011;38381;53.688;10.776;2023-09-19T23:04:01;2.33;;;1.67;;
52468;SDS011;38381;53.688;10.776;2023-09-19T23:09:12;4.53;;;1.48;;
52468;SDS011;38381;53.688;10.776;2023-09-19T23:14:16;4.45;;;1.42;;
52468;SDS011;38381;53.688;10.776;2023-09-19T23:19:17;2.38;;;1.15;;
52468;SDS011;38381;53.688;10.776;2023-09-19T23:24:23;2.95;;;1.45;;
52468;SDS011;38381;53.688;10.776;2023-09-19T23:29:27;3.00;;;1.52;;
52468;SDS011;38381;53.688;10.776;2023-09-19T23:34:27;4.07;;;2.05;;
52468;SDS011;38381;53.688;10.776;2023-09-19T23:39:27;2.87;;;1.80;;
52468;SDS011;38381;53.688;10.776;2023-09-19T23:44:29;3.72;;;1.95;;
52468;SDS011;38381;53.688;10.776;2023-09-19T23:49:30;3.60;;;2.30;;
52468;SDS011;38381;53.688;10.776;2023-09-19T23:54:31;3.13;;;1.50;;
52468;SDS011;38381;53.688;10.776;2023-09-19T23:59:34;1.80;;;1.30;;
